createdAt,value
2019-05-16T00:00:36.352Z,22.00
2019-05-16T00:03:43.010Z,24.47
2019-05-16T00:06:49.866Z,27.02
2019-05-16T00:09:58.855Z,24.65
2019-05-16T00:13:04.712Z,26.48
2019-05-16T00:16:11.285Z,22.40
2019-05-16T00:19:18.186Z,25.00
2019-05-16T00:22:28.584Z,23.67
2019-05-16T00:25:34.724Z,23.15
2019-05-16T00:28:41.300Z,24.20
2019-05-16T00:31:48.725Z,25.32
2019-05-16T00:34:58.214Z,24.10
2019-05-16T00:38:04.164Z,24.12
2019-05-16T00:41:11.162Z,25.48
2019-05-16T00:44:18.927Z,22.15
2019-05-16T00:47:28.256Z,23.73
2019-05-16T00:50:34.071Z,23.30
2019-05-16T00:53:43.916Z,24.98
2019-05-16T00:56:50.804Z,23.90
2019-05-16T01:00:00.835Z,21.68
2019-05-16T01:03:08.100Z,21.42
2019-05-16T01:06:19.921Z,22.90
2019-05-16T01:09:23.313Z,21.00
2019-05-16T01:12:30.163Z,25.80
2019-05-16T01:15:38.009Z,21.60
2019-05-16T01:18:48.406Z,20.35
2019-05-16T01:21:52.890Z,22.95
2019-05-16T01:24:59.543Z,24.47
2019-05-16T01:28:08.659Z,23.75
2019-05-16T01:31:14.703Z,23.02
2019-05-16T01:34:21.224Z,24.72
2019-05-16T01:37:27.934Z,23.55
2019-05-16T01:40:34.479Z,22.65
2019-05-16T01:43:41.171Z,21.80
2019-05-16T01:46:50.956Z,25.05
2019-05-16T01:49:58.056Z,22.67
2019-05-16T01:53:04.947Z,22.07
2019-05-16T01:56:11.471Z,26.68
2019-05-16T01:59:20.241Z,21.80
2019-05-16T02:02:28.788Z,22.73
2019-05-16T02:05:35.321Z,23.42
2019-05-16T02:08:42.023Z,24.32
2019-05-16T02:11:50.793Z,23.05
2019-05-16T02:14:58.718Z,23.52
2019-05-16T02:18:08.009Z,22.05
2019-05-16T02:21:13.757Z,25.35
2019-05-16T02:24:20.269Z,23.73
2019-05-16T02:27:28.751Z,23.45
2019-05-16T02:30:35.323Z,25.92
2019-05-16T02:33:41.948Z,22.48
2019-05-16T02:37:10.770Z,21.25
2019-05-16T02:40:01.194Z,25.77
2019-05-16T02:43:12.505Z,25.37
2019-05-16T02:46:21.559Z,28.62
2019-05-16T02:49:33.716Z,27.70
2019-05-16T02:52:35.653Z,24.05
2019-05-16T02:55:42.427Z,23.22
2019-05-16T02:58:52.013Z,24.12
2019-05-16T03:02:00.621Z,26.95
2019-05-16T03:05:06.084Z,24.02
2019-05-16T03:08:13.798Z,25.80
2019-05-16T03:11:21.340Z,27.07
2019-05-16T03:14:31.541Z,24.80
2019-05-16T03:17:43.687Z,23.00
2019-05-16T03:20:54.626Z,21.65
2019-05-16T03:24:01.953Z,23.30
2019-05-16T03:27:10.886Z,22.00
2019-05-16T03:30:17.348Z,25.20
2019-05-16T03:33:33.122Z,21.85
2019-05-16T03:36:34.424Z,22.60
2019-05-16T03:39:40.755Z,22.00
2019-05-16T03:42:47.621Z,21.97
2019-05-16T03:45:57.375Z,20.17
2019-05-16T03:49:04.044Z,22.27
2019-05-16T03:52:11.301Z,23.02
2019-05-16T03:55:21.112Z,20.72
2019-05-16T03:58:26.420Z,20.82
2019-05-16T04:01:34.917Z,20.30
2019-05-16T04:04:41.867Z,20.55
2019-05-16T04:07:53.167Z,21.95
2019-05-16T04:11:01.451Z,22.40
2019-05-16T04:14:10.613Z,21.73
2019-05-16T04:17:15.601Z,22.58
2019-05-16T04:20:24.459Z,25.00
2019-05-16T04:23:31.634Z,21.02
2019-05-16T04:26:40.945Z,25.37
2019-05-16T04:29:47.070Z,20.75
2019-05-16T04:32:53.602Z,25.65
2019-05-16T04:36:01.241Z,23.12
2019-05-16T04:39:11.800Z,21.10
2019-05-16T04:42:17.177Z,21.42
2019-05-16T04:45:23.764Z,24.67
2019-05-16T04:48:31.060Z,22.07
2019-05-16T04:51:41.129Z,22.00
2019-05-16T04:54:46.494Z,24.60
2019-05-16T04:57:52.977Z,24.98
2019-05-16T05:01:01.556Z,25.80
2019-05-16T05:04:11.691Z,22.93
2019-05-16T05:07:15.739Z,22.00
2019-05-16T05:10:22.595Z,19.85
2019-05-16T05:13:30.640Z,22.20
2019-05-16T05:16:37.341Z,24.80
2019-05-16T05:19:43.801Z,22.50
2019-05-16T05:22:50.276Z,21.68
2019-05-16T05:25:56.765Z,25.70
2019-05-16T05:29:03.355Z,20.60
2019-05-16T05:32:14.385Z,21.00
2019-05-16T05:35:20.605Z,21.30
2019-05-16T05:38:27.346Z,21.60
2019-05-16T05:41:33.919Z,22.05
2019-05-16T05:44:42.456Z,22.15
2019-05-16T05:47:50.521Z,23.90
2019-05-16T05:50:57.152Z,24.45
2019-05-16T05:54:03.758Z,23.90
2019-05-16T05:57:10.499Z,24.45
2019-05-16T06:00:17.192Z,21.15
2019-05-16T06:03:23.639Z,21.73
2019-05-16T06:06:32.817Z,23.50
2019-05-16T06:09:50.508Z,22.07
2019-05-16T06:12:46.777Z,21.62
2019-05-16T06:15:55.841Z,24.98
2019-05-16T06:19:02.354Z,20.57
2019-05-16T06:22:10.228Z,22.40
2019-05-16T06:25:16.992Z,20.80
2019-05-16T06:28:23.400Z,21.68
2019-05-16T06:31:31.436Z,23.00
2019-05-16T06:34:40.284Z,21.17
2019-05-16T06:37:46.680Z,20.70
2019-05-16T06:40:53.182Z,20.75
2019-05-16T06:44:01.589Z,21.20
2019-05-16T06:47:16.989Z,20.20
2019-05-16T06:50:16.634Z,21.17
2019-05-16T06:53:23.068Z,20.55
2019-05-16T06:56:32.140Z,23.77
2019-05-16T06:59:40.447Z,20.85
2019-05-16T07:02:50.305Z,20.27
2019-05-16T07:05:56.751Z,21.23
2019-05-16T07:09:05.018Z,19.70
2019-05-16T07:12:11.810Z,20.72
2019-05-16T07:15:20.654Z,20.45
2019-05-16T07:18:27.099Z,22.48
2019-05-16T07:21:33.614Z,19.50
2019-05-16T07:24:40.066Z,20.10
2019-05-16T07:27:50.730Z,22.93
2019-05-16T07:30:56.415Z,19.98
2019-05-16T07:34:03.186Z,21.10
2019-05-16T07:37:10.813Z,22.32
2019-05-16T07:40:25.663Z,19.75
2019-05-16T07:43:25.959Z,19.90
2019-05-16T07:46:32.567Z,20.82
2019-05-16T07:49:40.721Z,20.30
2019-05-16T07:52:50.825Z,20.95
2019-05-16T07:55:56.150Z,20.90
2019-05-16T07:59:02.719Z,22.75
2019-05-16T08:02:10.930Z,22.37
2019-05-16T08:05:20.769Z,20.85
2019-05-16T08:08:26.049Z,24.92
2019-05-16T08:11:32.536Z,20.30
2019-05-16T08:14:40.904Z,22.02
2019-05-16T08:17:51.120Z,24.70
2019-05-16T08:21:00.750Z,21.80
2019-05-16T08:24:08.121Z,24.37
2019-05-16T08:27:14.616Z,22.07
2019-05-16T08:30:21.375Z,20.85
2019-05-16T08:33:31.193Z,20.68
2019-05-16T08:36:36.944Z,20.65
2019-05-16T08:39:43.361Z,22.60
2019-05-16T08:42:52.091Z,20.62
2019-05-16T08:46:01.064Z,21.23
2019-05-16T08:49:06.955Z,23.20
2019-05-16T08:52:13.467Z,20.62
2019-05-16T08:55:21.780Z,19.85
2019-05-16T08:58:33.099Z,20.35
2019-05-16T09:01:36.996Z,19.82
2019-05-16T09:04:45.975Z,20.52
2019-05-16T09:11:09.440Z,20.10
2019-05-16T09:14:09.432Z,20.10
2019-05-16T09:17:18.027Z,21.48
2019-05-16T09:18:32.826Z,20.68
2019-05-16T09:20:24.128Z,21.97
2019-05-16T09:23:32.223Z,21.48
2019-05-16T09:26:38.823Z,20.77
2019-05-16T09:29:47.279Z,21.50
2019-05-16T09:32:53.824Z,19.75
2019-05-16T09:36:00.400Z,22.95
2019-05-16T09:39:09.093Z,20.27
2019-05-16T09:42:17.159Z,19.70
2019-05-16T09:45:27.049Z,20.52
2019-05-16T09:48:33.207Z,20.30
2019-05-16T09:51:39.827Z,21.52
2019-05-16T09:54:46.963Z,19.73
2019-05-16T09:57:54.995Z,20.37
2019-05-16T10:01:01.870Z,20.85
2019-05-16T10:04:08.486Z,21.23
2019-05-16T10:07:17.824Z,21.40
2019-05-16T10:10:26.172Z,21.40
2019-05-16T10:13:33.801Z,20.20
2019-05-16T10:16:42.194Z,20.82
2019-05-16T10:19:49.204Z,20.10
2019-05-16T10:22:57.982Z,20.37
2019-05-16T10:26:04.308Z,23.55
2019-05-16T10:29:11.160Z,21.60
2019-05-16T10:32:17.773Z,20.35
2019-05-16T10:35:29.187Z,21.17
2019-05-16T10:38:32.485Z,20.57
2019-05-16T10:41:38.981Z,20.20
2019-05-16T10:44:48.357Z,22.37
2019-05-16T10:47:54.257Z,21.57
2019-05-16T10:51:01.036Z,21.10
2019-05-16T10:54:13.629Z,20.12
2019-05-16T10:57:16.043Z,20.92
2019-05-16T11:00:49.056Z,20.95
2019-05-16T11:03:31.042Z,22.55
2019-05-16T11:06:37.814Z,24.37
2019-05-16T11:09:55.747Z,21.55
2019-05-16T11:12:55.622Z,20.55
2019-05-16T11:16:02.308Z,24.10
2019-05-16T11:19:17.453Z,21.48
2019-05-16T11:22:18.309Z,22.25
2019-05-16T11:25:29.575Z,21.42
2019-05-16T11:28:33.508Z,21.62
2019-05-16T11:31:39.923Z,25.32
2019-05-16T11:34:47.945Z,20.60
2019-05-16T11:37:57.045Z,22.62
2019-05-16T11:41:03.449Z,21.33
2019-05-16T11:44:10.191Z,21.40
2019-05-16T11:47:16.753Z,24.40
2019-05-16T11:50:23.540Z,21.73
2019-05-16T11:53:30.060Z,21.33
2019-05-16T11:56:37.039Z,25.92
2019-05-16T11:59:43.979Z,21.95
2019-05-16T12:02:51.130Z,22.32
2019-05-16T12:05:58.086Z,21.30
2019-05-16T12:09:06.791Z,22.17
2019-05-16T12:12:16.416Z,20.17
2019-05-16T12:15:23.920Z,25.88
2019-05-16T12:18:30.433Z,20.55
2019-05-16T12:21:37.334Z,21.12
2019-05-16T12:24:43.763Z,21.20
2019-05-16T12:27:52.305Z,23.57
2019-05-16T12:30:58.782Z,21.95
2019-05-16T12:34:09.545Z,25.08
2019-05-16T12:37:14.815Z,21.48
2019-05-16T12:40:21.270Z,22.93
2019-05-16T12:43:44.274Z,22.52
2019-05-16T12:46:36.570Z,24.60
2019-05-16T12:49:43.333Z,21.97
2019-05-16T12:52:51.495Z,23.22
2019-05-16T12:55:57.946Z,21.80
2019-05-16T12:59:04.738Z,22.95
2019-05-16T13:02:11.291Z,21.12
2019-05-16T13:05:18.092Z,22.20
2019-05-16T13:08:26.779Z,26.40
2019-05-16T13:11:33.075Z,23.77
2019-05-16T13:14:40.502Z,20.27
2019-05-16T13:17:48.641Z,25.48
2019-05-16T13:20:57.412Z,25.15
2019-05-16T13:24:03.613Z,20.72
2019-05-16T13:27:10.210Z,22.62
2019-05-16T13:30:17.704Z,22.45
2019-05-16T13:33:24.196Z,26.45
2019-05-16T13:36:30.807Z,24.30
2019-05-16T13:39:37.633Z,24.20
2019-05-16T13:42:47.998Z,21.23
2019-05-16T13:45:52.540Z,26.15
2019-05-16T13:48:59.122Z,23.38
2019-05-16T13:52:07.243Z,24.70
2019-05-16T13:55:16.561Z,22.20
2019-05-16T13:58:22.653Z,25.25
2019-05-16T14:01:29.435Z,26.37
2019-05-16T14:04:37.259Z,26.25
2019-05-16T14:07:47.783Z,24.52
2019-05-16T14:10:53.669Z,22.42
2019-05-16T14:14:00.173Z,26.07
2019-05-16T14:17:14.116Z,23.83
2019-05-16T14:20:18.201Z,22.52
2019-05-16T14:23:24.253Z,22.77
2019-05-16T14:26:30.763Z,24.65
2019-05-16T14:29:37.893Z,24.92
2019-05-16T14:32:50.517Z,25.20
2019-05-16T14:35:53.430Z,28.47
2019-05-16T14:38:59.917Z,24.25
2019-05-16T14:42:06.647Z,22.52
2019-05-16T14:45:19.250Z,24.87
2019-05-16T14:48:27.798Z,23.57
2019-05-16T14:51:34.021Z,23.67
2019-05-16T14:54:40.567Z,26.33
2019-05-16T14:57:50.005Z,24.12
2019-05-16T15:00:57.479Z,31.33
2019-05-16T15:04:07.202Z,25.57
2019-05-16T15:07:13.087Z,22.00
2019-05-16T15:10:20.110Z,22.93
2019-05-16T15:13:28.025Z,24.63
2019-05-16T15:16:34.722Z,22.65
2019-05-16T15:19:41.602Z,22.87
2019-05-16T15:22:48.669Z,22.20
2019-05-16T15:25:55.092Z,23.73
2019-05-16T15:29:01.887Z,21.85
2019-05-16T15:32:08.566Z,24.10
2019-05-16T15:35:18.001Z,23.83
2019-05-16T15:38:26.980Z,25.88
2019-05-16T15:41:33.319Z,21.00
2019-05-16T15:44:39.962Z,27.80
2019-05-16T15:47:49.183Z,25.27
2019-05-16T15:50:59.511Z,28.62
2019-05-16T15:54:06.712Z,24.40
2019-05-16T15:57:13.366Z,24.63
2019-05-16T16:00:43.061Z,25.82
2019-05-16T16:03:51.167Z,23.22
2019-05-16T16:06:57.759Z,24.18
2019-05-16T16:10:07.029Z,22.05
2019-05-16T16:13:13.766Z,21.37
2019-05-16T16:16:20.360Z,27.42
2019-05-16T16:19:28.630Z,27.73
2019-05-16T16:22:37.760Z,28.32
2019-05-16T16:25:50.702Z,27.27
2019-05-16T16:28:55.209Z,24.02
2019-05-16T16:32:02.005Z,25.92
2019-05-16T16:35:08.831Z,27.27
2019-05-16T16:38:16.929Z,23.10
2019-05-16T16:41:23.787Z,24.20
2019-05-16T16:44:30.416Z,28.92
2019-05-16T16:47:38.011Z,27.40
2019-05-16T16:50:45.295Z,29.20
2019-05-16T16:53:52.746Z,25.82
2019-05-16T16:56:59.535Z,25.75
2019-05-16T17:00:07.536Z,27.00
2019-05-16T17:03:16.658Z,23.05
2019-05-16T17:06:31.300Z,23.02
2019-05-16T17:09:38.139Z,29.63
2019-05-16T17:12:48.403Z,25.80
2019-05-16T17:15:56.939Z,29.07
2019-05-16T17:19:03.361Z,23.85
2019-05-16T17:22:17.141Z,24.98
2019-05-16T17:25:21.337Z,22.77
2019-05-16T17:28:28.020Z,28.75
2019-05-16T17:31:34.744Z,25.88
2019-05-16T17:34:41.377Z,27.48
2019-05-16T17:37:49.933Z,26.37
2019-05-16T17:40:57.076Z,26.73
2019-05-16T17:44:03.765Z,24.65
2019-05-16T17:47:10.341Z,29.57
2019-05-16T17:50:17.791Z,26.30
2019-05-16T17:53:26.532Z,24.87
2019-05-16T17:56:33.582Z,27.82
2019-05-16T17:59:40.326Z,27.00
2019-05-16T18:02:49.093Z,24.65
2019-05-16T18:05:56.727Z,25.62
2019-05-16T18:09:06.627Z,29.67
2019-05-16T18:12:14.676Z,24.87
2019-05-16T18:15:24.659Z,26.40
2019-05-16T18:18:33.429Z,29.12
2019-05-16T18:21:39.908Z,27.73
2019-05-16T18:24:51.672Z,25.45
2019-05-16T18:28:13.515Z,32.95
2019-05-16T18:31:20.099Z,25.68
2019-05-16T18:34:28.036Z,32.35
2019-05-16T18:37:34.597Z,27.75
2019-05-16T18:40:41.066Z,31.42
2019-05-16T18:43:50.906Z,27.13
2019-05-16T18:47:06.840Z,23.57
2019-05-16T18:50:06.928Z,26.10
2019-05-16T18:53:13.646Z,29.32
2019-05-16T18:56:20.034Z,33.02
2019-05-16T18:59:28.672Z,26.12
2019-05-16T19:02:37.937Z,27.10
2019-05-16T19:05:47.750Z,30.97
2019-05-16T19:08:56.344Z,25.10
2019-05-16T19:12:03.489Z,24.77
2019-05-16T19:15:10.581Z,26.73
2019-05-16T19:18:18.409Z,31.60
2019-05-16T19:21:26.205Z,32.35
2019-05-16T19:24:34.277Z,28.20
2019-05-16T19:27:41.088Z,22.85
2019-05-16T19:30:48.825Z,26.20
2019-05-16T19:33:56.536Z,26.17
2019-05-16T19:37:03.250Z,29.05
2019-05-16T19:40:11.200Z,29.42
2019-05-16T19:43:17.785Z,28.60
2019-05-16T19:46:26.955Z,32.58
2019-05-16T19:49:32.666Z,27.05
2019-05-16T19:52:39.260Z,25.62
2019-05-16T19:55:48.920Z,29.30
2019-05-16T19:58:57.131Z,28.20
2019-05-16T20:02:03.939Z,25.77
2019-05-16T20:05:11.076Z,34.08
2019-05-16T20:08:17.763Z,33.13
2019-05-16T20:11:27.618Z,31.60
2019-05-16T20:14:36.663Z,29.23
2019-05-16T20:17:52.166Z,28.92
2019-05-16T20:20:51.584Z,30.45
2019-05-16T20:24:00.518Z,28.42
2019-05-16T20:27:08.122Z,37.58
2019-05-16T20:30:17.053Z,36.70
2019-05-16T20:33:23.824Z,28.07
2019-05-16T20:36:30.423Z,34.50
2019-05-16T20:39:37.195Z,30.37
2019-05-16T20:42:47.452Z,25.27
2019-05-16T20:45:52.398Z,24.43
2019-05-16T20:48:59.096Z,29.05
2019-05-16T20:52:07.079Z,28.42
2019-05-16T20:55:14.336Z,30.68
2019-05-16T20:58:20.958Z,30.25
2019-05-16T21:01:29.395Z,23.10
2019-05-16T21:04:37.507Z,29.72
2019-05-16T21:07:48.849Z,26.82
2019-05-16T21:10:57.045Z,24.80
2019-05-16T21:14:03.483Z,28.98
2019-05-16T21:17:10.056Z,32.70
2019-05-16T21:20:19.727Z,30.55
2019-05-16T21:23:27.475Z,29.40
2019-05-16T21:26:36.799Z,26.10
2019-05-16T21:29:47.195Z,27.35
2019-05-16T21:32:53.536Z,23.77
2019-05-16T21:36:00.304Z,29.70
2019-05-16T21:39:08.602Z,23.47
2019-05-16T21:42:18.535Z,27.73
2019-05-16T21:45:28.325Z,28.98
2019-05-16T21:48:36.872Z,28.73
2019-05-16T21:51:42.819Z,24.47
2019-05-16T21:54:51.161Z,23.05
2019-05-16T21:57:57.745Z,35.95
2019-05-16T22:01:06.608Z,29.23
2019-05-16T22:04:13.964Z,26.20
2019-05-16T22:07:32.814Z,24.52
2019-05-16T22:10:30.708Z,27.35
2019-05-16T22:13:41.298Z,25.75
2019-05-16T22:16:49.557Z,31.48
2019-05-16T22:19:59.161Z,28.12
2019-05-16T22:23:06.989Z,25.55
2019-05-16T22:26:13.729Z,34.45
2019-05-16T22:29:21.353Z,30.00
2019-05-16T22:32:28.022Z,24.30
2019-05-16T22:35:34.747Z,23.95
2019-05-16T22:38:41.430Z,29.10
2019-05-16T22:41:51.100Z,30.85
2019-05-16T22:44:57.725Z,28.40
2019-05-16T22:48:07.069Z,30.65
2019-05-16T22:51:16.874Z,24.52
2019-05-16T22:54:23.445Z,28.02
2019-05-16T22:57:29.967Z,23.10
2019-05-16T23:00:41.299Z,27.75
2019-05-16T23:03:49.042Z,37.30
2019-05-16T23:06:56.451Z,27.87
2019-05-16T23:10:03.196Z,39.70
2019-05-16T23:13:09.603Z,31.57
2019-05-16T23:16:17.168Z,27.40
2019-05-16T23:19:26.468Z,31.55
2019-05-16T23:22:36.486Z,28.83
2019-05-16T23:39:49.522Z,28.17
2019-05-16T23:42:56.945Z,27.00
2019-05-16T23:46:03.641Z,30.48
2019-05-16T23:49:10.718Z,29.80
2019-05-16T23:52:17.279Z,24.00
2019-05-16T23:55:23.754Z,27.67
2019-05-16T23:58:33.325Z,31.62
